Time;durP1;ratioP1;P1;durP2;ratioP2;P2;SDS_P1;SDS_P2;PMS_P1;PMS_P2;Temp;Humidity;BMP_temperature;BMP_pressure;BME280_temperature;BME280_humidity;BME280_pressure;Samples;Min_cycle;Max_cycle;Signal;HPM_P1;HPM_P2
2022/06/22 00:00:48;;;;;;;9.05;5.82;;;;;;;;;;5090378;28;20455;-69
2022/06/22 00:03:35;;;;;;;7.43;5.20;;;;;;;;;;5089376;28;20036;-69
2022/06/22 00:06:28;;;;;;;8.43;5.35;;;;;;;;;;5082772;28;20035;-69
2022/06/22 00:09:28;;;;;;;9.38;5.35;;;;;;;;;;5085234;28;20549;-59
2022/06/22 00:12:20;;;;;;;8.45;5.57;;;;;;;;;;5090958;28;20024;-62
2022/06/22 00:15:20;;;;;;;6.45;5.65;;;;;;;;;;5093147;28;20039;-61
2022/06/22 00:18:23;;;;;;;9.23;5.50;;;;;;;;;;5091289;28;20081;-61
2022/06/22 00:21:15;;;;;;;8.63;6.13;;;;;;;;;;5093028;28;20039;-61
2022/06/22 00:24:03;;;;;;;7.43;5.57;;;;;;;;;;5077843;28;20019;-61
2022/06/22 00:26:57;;;;;;;7.45;5.45;;;;;;;;;;5093090;28;20024;-70
2022/06/22 00:29:44;;;;;;;8.45;5.93;;;;;;;;;;5092722;28;20394;-61
2022/06/22 00:32:30;;;;;;;10.13;5.88;;;;;;;;;;5081080;28;20066;-60
2022/06/22 00:35:34;;;;;;;8.85;5.70;;;;;;;;;;5091954;28;20027;-60
2022/06/22 00:38:20;;;;;;;10.32;6.38;;;;;;;;;;5084718;28;20054;-59
2022/06/22 00:41:17;;;;;;;7.85;6.13;;;;;;;;;;5091558;28;20028;-60
2022/06/22 00:44:07;;;;;;;12.02;5.68;;;;;;;;;;5077996;28;20020;-60
2022/06/22 00:46:56;;;;;;;11.63;6.13;;;;;;;;;;5094602;28;20024;-59
2022/06/22 00:49:43;;;;;;;9.80;6.07;;;;;;;;;;5078200;28;20051;-60
2022/06/22 00:52:39;;;;;;;8.35;6.82;;;;;;;;;;5091076;28;20394;-59
2022/06/22 00:55:36;;;;;;;9.15;5.70;;;;;;;;;;5064172;28;20028;-63
2022/06/22 00:58:24;;;;;;;6.88;5.53;;;;;;;;;;5081411;28;20462;-59
2022/06/22 01:01:18;;;;;;;13.33;5.53;;;;;;;;;;5093870;28;20039;-59
2022/06/22 01:04:19;;;;;;;8.68;6.57;;;;;;;;;;5091889;28;20036;-70
2022/06/22 01:07:14;;;;;;;8.55;5.88;;;;;;;;;;5092019;28;20035;-58
2022/06/22 01:10:11;;;;;;;9.88;5.78;;;;;;;;;;5091712;28;20039;-59
2022/06/22 01:13:00;;;;;;;8.07;5.75;;;;;;;;;;5087144;28;20036;-59
2022/06/22 01:15:49;;;;;;;8.10;5.80;;;;;;;;;;5090867;28;20024;-59
2022/06/22 01:18:36;;;;;;;11.30;5.55;;;;;;;;;;5092532;28;20024;-57
2022/06/22 01:21:24;;;;;;;8.90;6.25;;;;;;;;;;5091256;28;20104;-59
2022/06/22 01:24:10;;;;;;;10.43;5.90;;;;;;;;;;5080094;28;20081;-73
2022/06/22 01:27:20;;;;;;;8.15;6.32;;;;;;;;;;5089793;28;20026;-59
2022/06/22 01:30:17;;;;;;;8.13;6.20;;;;;;;;;;5088944;28;20028;-59
2022/06/22 01:33:26;;;;;;;10.07;6.22;;;;;;;;;;5092201;28;20032;-59
2022/06/22 01:36:16;;;;;;;7.20;5.30;;;;;;;;;;5090496;28;20032;-59
2022/06/22 01:39:02;;;;;;;8.85;5.28;;;;;;;;;;5091769;28;20028;-59
2022/06/22 01:41:54;;;;;;;9.55;6.13;;;;;;;;;;5089543;28;20024;-60
2022/06/22 01:44:44;;;;;;;8.38;5.82;;;;;;;;;;5081203;28;20142;-59
2022/06/22 01:47:29;;;;;;;9.57;5.60;;;;;;;;;;5069117;28;20485;-59
2022/06/22 01:50:18;;;;;;;11.52;5.50;;;;;;;;;;5077868;28;20063;-58
2022/06/22 01:53:27;;;;;;;8.85;5.38;;;;;;;;;;5091737;28;20032;-60
2022/06/22 01:56:31;;;;;;;6.70;5.43;;;;;;;;;;5077378;28;20034;-60
2022/06/22 01:59:23;;;;;;;7.47;5.85;;;;;;;;;;5087967;28;20054;-68
2022/06/22 02:02:14;;;;;;;9.15;5.88;;;;;;;;;;5083165;28;20024;-61
2022/06/22 02:05:04;;;;;;;9.32;5.93;;;;;;;;;;5074213;28;20561;-60
2022/06/22 02:07:56;;;;;;;7.78;5.65;;;;;;;;;;5084217;28;20107;-60
2022/06/22 02:10:54;;;;;;;7.15;6.00;;;;;;;;;;5091181;28;20047;-59
2022/06/22 02:13:51;;;;;;;9.93;5.78;;;;;;;;;;5088869;28;20104;-58
2022/06/22 02:16:39;;;;;;;10.65;5.68;;;;;;;;;;5087928;28;20032;-58
2022/06/22 02:19:29;;;;;;;8.98;5.70;;;;;;;;;;5090612;28;20032;-60
2022/06/22 02:22:15;;;;;;;7.65;5.85;;;;;;;;;;5091130;28;20028;-71
2022/06/22 02:25:00;;;;;;;7.18;5.15;;;;;;;;;;5084684;28;20454;-70
2022/06/22 02:27:46;;;;;;;9.48;5.68;;;;;;;;;;5090536;28;20047;-71
2022/06/22 02:30:32;;;;;;;9.82;5.93;;;;;;;;;;5090976;28;20031;-70
2022/06/22 02:33:18;;;;;;;10.20;6.00;;;;;;;;;;5083106;28;20032;-72
2022/06/22 02:36:04;;;;;;;8.93;5.80;;;;;;;;;;5079688;28;20135;-69
2022/06/22 02:38:50;;;;;;;8.48;5.68;;;;;;;;;;5060263;28;20067;-61
2022/06/22 02:44:42;;;;;;;9.77;6.07;;;;;;;;;;5088154;28;20032;-60
2022/06/22 02:47:29;;;;;;;7.22;5.25;;;;;;;;;;5088020;28;20112;-60
2022/06/22 02:50:24;;;;;;;7.75;5.82;;;;;;;;;;5066255;28;20459;-62
2022/06/22 02:53:16;;;;;;;8.65;5.55;;;;;;;;;;5087540;28;20477;-61
2022/06/22 02:56:07;;;;;;;7.32;6.22;;;;;;;;;;5091603;28;20490;-59
2022/06/22 02:58:52;;;;;;;8.90;6.18;;;;;;;;;;5090940;28;20032;-61
2022/06/22 03:01:39;;;;;;;8.88;6.13;;;;;;;;;;5066214;28;20081;-61
2022/06/22 03:04:24;;;;;;;9.23;6.15;;;;;;;;;;5086433;28;20463;-65
2022/06/22 03:07:10;;;;;;;7.63;5.70;;;;;;;;;;5073368;28;20032;-61
2022/06/22 03:09:56;;;;;;;10.48;6.45;;;;;;;;;;5079547;28;20028;-61
2022/06/22 03:12:42;;;;;;;8.98;5.90;;;;;;;;;;5090621;28;20484;-61
2022/06/22 03:15:30;;;;;;;8.98;6.45;;;;;;;;;;5088170;28;20154;-58
2022/06/22 03:18:23;;;;;;;8.60;5.82;;;;;;;;;;5090590;28;20024;-60
2022/06/22 03:21:13;;;;;;;10.80;6.68;;;;;;;;;;5083243;28;20089;-60
2022/06/22 03:24:06;;;;;;;8.35;6.65;;;;;;;;;;5086036;28;20028;-60
2022/06/22 03:26:57;;;;;;;8.13;6.55;;;;;;;;;;5088798;28;20036;-60
2022/06/22 03:29:54;;;;;;;10.77;7.70;;;;;;;;;;5089384;28;20028;-59
2022/06/22 03:32:52;;;;;;;10.10;6.68;;;;;;;;;;5088955;28;20123;-59
2022/06/22 03:35:46;;;;;;;9.20;7.18;;;;;;;;;;5080538;28;20379;-62
2022/06/22 03:38:34;;;;;;;7.85;6.45;;;;;;;;;;5083039;28;20457;-62
2022/06/22 03:41:30;;;;;;;9.98;6.45;;;;;;;;;;5088102;28;20021;-63
2022/06/22 03:44:27;;;;;;;8.65;6.55;;;;;;;;;;5089421;28;20032;-61
2022/06/22 03:47:15;;;;;;;10.10;7.18;;;;;;;;;;5093592;28;20028;-60
2022/06/22 03:50:13;;;;;;;9.15;7.70;;;;;;;;;;5093984;28;20403;-60
2022/06/22 03:53:06;;;;;;;8.68;6.45;;;;;;;;;;5091987;28;20351;-68
2022/06/22 03:55:54;;;;;;;11.50;7.28;;;;;;;;;;5092082;28;20040;-68
2022/06/22 03:58:41;;;;;;;11.65;7.03;;;;;;;;;;5094697;28;20086;-69
2022/06/22 04:01:27;;;;;;;8.02;6.93;;;;;;;;;;5091566;28;20031;-69
2022/06/22 04:04:12;;;;;;;9.50;6.35;;;;;;;;;;5093373;28;20020;-68
2022/06/22 04:06:58;;;;;;;9.90;7.47;;;;;;;;;;5093622;28;20059;-70
2022/06/22 04:09:48;;;;;;;9.68;7.13;;;;;;;;;;5065957;28;20450;-60
2022/06/22 04:12:36;;;;;;;11.60;6.80;;;;;;;;;;5089031;28;20030;-69
2022/06/22 04:15:30;;;;;;;9.18;6.53;;;;;;;;;;5093853;28;20032;-69
2022/06/22 04:18:28;;;;;;;9.85;7.15;;;;;;;;;;5093348;28;20111;-69
2022/06/22 04:21:18;;;;;;;9.30;6.80;;;;;;;;;;5091481;28;20020;-70
2022/06/22 04:24:03;;;;;;;;;;;;;;;;;;5076330;28;20062;-69
2022/06/22 04:26:52;;;;;;;9.02;7.22;;;;;;;;;;5091451;28;19950;-59
2022/06/22 04:29:42;;;;;;;10.10;7.47;;;;;;;;;;5072337;28;20059;-57
2022/06/22 04:32:27;;;;;;;;;;;;;;;;;;5080823;28;20040;-58
2022/06/22 04:35:13;;;;;;;9.40;6.50;;;;;;;;;;5093076;28;19912;-57
2022/06/22 04:38:05;;;;;;;11.25;7.30;;;;;;;;;;5093827;28;20032;-58
2022/06/22 04:40:59;;;;;;;9.95;7.10;;;;;;;;;;5085379;28;20533;-60
2022/06/22 04:43:46;;;;;;;9.77;7.10;;;;;;;;;;5088176;28;20052;-58
2022/06/22 04:46:33;;;;;;;11.70;7.18;;;;;;;;;;5086783;28;20028;-58
2022/06/22 04:49:19;;;;;;;11.32;6.50;;;;;;;;;;5094302;28;20035;-71
2022/06/22 04:52:37;;;;;;;11.73;8.00;;;;;;;;;;5089431;28;20035;-71
2022/06/22 04:55:24;;;;;;;8.90;6.40;;;;;;;;;;5066892;28;20074;-71
2022/06/22 04:58:20;;;;;;;8.88;6.97;;;;;;;;;;5091276;28;20036;-71
2022/06/22 05:01:06;;;;;;;8.40;6.45;;;;;;;;;;5089702;28;20028;-71
2022/06/22 05:03:55;;;;;;;11.18;7.68;;;;;;;;;;5091830;28;20130;-62
2022/06/22 05:06:45;;;;;;;10.10;7.25;;;;;;;;;;5094062;28;20040;-70
2022/06/22 05:09:31;;;;;;;9.05;6.72;;;;;;;;;;5082865;28;20028;-71
2022/06/22 05:12:19;;;;;;;10.50;7.22;;;;;;;;;;5091156;28;20497;-70
2022/06/22 05:15:05;;;;;;;10.25;6.63;;;;;;;;;;5087578;28;20036;-72
2022/06/22 05:17:50;;;;;;;10.82;7.15;;;;;;;;;;5090178;28;20535;-70
2022/06/22 05:20:43;;;;;;;8.90;7.07;;;;;;;;;;5092802;28;20035;-72
2022/06/22 05:23:29;;;;;;;9.45;7.15;;;;;;;;;;5076905;28;20099;-59
2022/06/22 05:26:18;;;;;;;9.05;7.10;;;;;;;;;;5089742;28;20458;-69
2022/06/22 05:29:12;;;;;;;11.25;7.28;;;;;;;;;;5089043;28;20039;-70
2022/06/22 05:31:59;;;;;;;11.77;6.95;;;;;;;;;;5072712;28;20032;-72
2022/06/22 05:34:46;;;;;;;9.30;7.35;;;;;;;;;;5085723;28;20460;-69
2022/06/22 05:37:34;;;;;;;10.25;6.60;;;;;;;;;;5086443;28;20027;-69
2022/06/22 05:40:21;;;;;;;11.40;7.05;;;;;;;;;;5091411;28;20378;-58
2022/06/22 05:43:08;;;;;;;9.77;7.03;;;;;;;;;;5084062;28;20505;-62
2022/06/22 05:45:54;;;;;;;9.02;6.18;;;;;;;;;;5088666;28;20451;-62
2022/06/22 05:48:42;;;;;;;8.63;6.70;;;;;;;;;;5083108;28;20493;-61
2022/06/22 05:51:27;;;;;;;9.35;6.18;;;;;;;;;;5071937;28;20029;-59
2022/06/22 05:54:32;;;;;;;10.25;7.13;;;;;;;;;;5087275;28;20024;-61
2022/06/22 05:57:21;;;;;;;10.35;6.22;;;;;;;;;;5055330;28;20024;-62
2022/06/22 06:00:11;;;;;;;11.80;7.25;;;;;;;;;;5073315;28;20056;-67
2022/06/22 06:03:04;;;;;;;13.07;7.38;;;;;;;;;;5081373;28;20522;-72
2022/06/22 06:05:51;;;;;;;10.35;6.88;;;;;;;;;;5088698;28;20103;-67
2022/06/22 06:08:44;;;;;;;11.60;7.18;;;;;;;;;;5089127;28;20024;-65
2022/06/22 06:11:37;;;;;;;12.52;7.45;;;;;;;;;;5090370;28;20027;-66
2022/06/22 06:14:25;;;;;;;12.35;6.90;;;;;;;;;;5076976;28;20039;-66
2022/06/22 06:17:26;;;;;;;11.98;7.00;;;;;;;;;;5074331;28;20117;-63
2022/06/22 06:20:17;;;;;;;9.02;6.45;;;;;;;;;;5089526;28;20039;-67
2022/06/22 06:23:06;;;;;;;9.73;6.85;;;;;;;;;;5077848;28;20110;-66
2022/06/22 06:29:01;;;;;;;9.25;6.75;;;;;;;;;;5091718;28;20024;-66
2022/06/22 06:32:01;;;;;;;9.85;6.97;;;;;;;;;;5091614;28;20031;-66
2022/06/22 06:34:55;;;;;;;11.40;7.10;;;;;;;;;;5086715;28;20374;-57
2022/06/22 06:37:41;;;;;;;14.35;6.95;;;;;;;;;;5091177;28;20095;-57
2022/06/22 06:40:39;;;;;;;9.38;7.22;;;;;;;;;;5086919;28;20494;-54
2022/06/22 06:43:43;;;;;;;10.57;7.43;;;;;;;;;;5090641;28;20036;-56
2022/06/22 06:46:28;;;;;;;11.27;8.20;;;;;;;;;;5076436;28;20386;-53
2022/06/22 06:49:37;;;;;;;9.25;7.18;;;;;;;;;;5087253;28;20052;-54
2022/06/22 06:52:41;;;;;;;10.70;7.32;;;;;;;;;;5082148;28;20027;-52
2022/06/22 06:55:27;;;;;;;9.05;6.75;;;;;;;;;;5078092;28;20462;-64
2022/06/22 06:58:30;;;;;;;9.65;5.88;;;;;;;;;;5086143;28;20032;-64
2022/06/22 07:01:27;;;;;;;10.80;7.15;;;;;;;;;;5081643;28;20028;-65
2022/06/22 07:04:23;;;;;;;9.82;6.65;;;;;;;;;;5089345;28;20062;-66
2022/06/22 07:07:17;;;;;;;8.82;6.60;;;;;;;;;;5090120;28;20028;-66
2022/06/22 07:10:07;;;;;;;9.35;6.95;;;;;;;;;;5072152;28;20024;-64
2022/06/22 07:12:56;;;;;;;9.63;7.07;;;;;;;;;;5089199;28;20031;-57
2022/06/22 07:15:45;;;;;;;12.00;7.53;;;;;;;;;;5086465;28;20031;-58
2022/06/22 07:18:34;;;;;;;13.73;7.70;;;;;;;;;;5086822;28;20016;-57
2022/06/22 07:21:32;;;;;;;10.30;7.60;;;;;;;;;;5085203;28;20048;-58
2022/06/22 07:24:33;;;;;;;8.87;7.07;;;;;;;;;;5090050;28;20423;-57
2022/06/22 07:27:24;;;;;;;13.25;7.70;;;;;;;;;;5089286;28;20032;-58
2022/06/22 07:30:24;;;;;;;8.60;6.82;;;;;;;;;;5089188;28;20035;-55
2022/06/22 07:33:12;;;;;;;11.52;7.68;;;;;;;;;;5087802;28;20073;-64
2022/06/22 07:36:06;;;;;;;12.43;6.90;;;;;;;;;;5077238;28;20040;-54
2022/06/22 07:38:56;;;;;;;12.90;7.80;;;;;;;;;;5080992;28;20055;-58
2022/06/22 07:41:42;;;;;;;15.52;8.00;;;;;;;;;;5069447;28;20040;-60
2022/06/22 07:44:31;;;;;;;9.55;7.28;;;;;;;;;;5085975;28;20062;-55
2022/06/22 07:47:33;;;;;;;9.85;6.97;;;;;;;;;;5088916;28;20501;-50
2022/06/22 07:50:21;;;;;;;10.35;7.47;;;;;;;;;;5084339;28;20051;-55
2022/06/22 07:53:12;;;;;;;10.07;6.93;;;;;;;;;;5087917;28;20028;-62
2022/06/22 07:56:01;;;;;;;13.13;7.50;;;;;;;;;;5087894;28;20032;-62
2022/06/22 07:58:52;;;;;;;10.45;6.30;;;;;;;;;;5087172;28;20032;-63
2022/06/22 08:01:40;;;;;;;14.15;6.47;;;;;;;;;;5088842;28;20417;-64
2022/06/22 08:04:28;;;;;;;9.10;5.97;;;;;;;;;;5087478;28;20088;-65
2022/06/22 08:07:16;;;;;;;11.95;5.90;;;;;;;;;;5088667;28;20020;-60
2022/06/22 08:10:06;;;;;;;11.90;5.95;;;;;;;;;;5080973;28;20427;-65
2022/06/22 08:12:57;;;;;;;12.65;6.82;;;;;;;;;;5083675;28;20029;-66
2022/06/22 08:15:45;;;;;;;9.38;6.10;;;;;;;;;;5091193;28;20113;-66
2022/06/22 08:18:31;;;;;;;10.48;6.43;;;;;;;;;;5077137;28;20395;-66
2022/06/22 08:21:18;;;;;;;9.48;6.50;;;;;;;;;;5084190;28;20103;-66
2022/06/22 08:24:06;;;;;;;15.13;6.57;;;;;;;;;;5088413;28;20032;-67
2022/06/22 08:26:53;;;;;;;13.50;6.75;;;;;;;;;;5074214;28;20024;-63
2022/06/22 08:29:39;;;;;;;12.30;6.70;;;;;;;;;;5086254;28;20471;-65
2022/06/22 08:32:32;;;;;;;11.13;6.10;;;;;;;;;;5088440;28;20028;-65
2022/06/22 08:35:17;;;;;;;11.07;6.55;;;;;;;;;;5091485;28;20074;-64
2022/06/22 08:38:07;;;;;;;11.00;6.55;;;;;;;;;;5085627;28;20036;-62
2022/06/22 08:41:11;;;;;;;9.45;6.72;;;;;;;;;;5093595;28;20206;-65
2022/06/22 08:44:01;;;;;;;10.77;7.30;;;;;;;;;;5092976;28;20024;-65
2022/06/22 08:46:46;;;;;;;12.07;7.53;;;;;;;;;;5088322;28;20049;-65
2022/06/22 08:49:35;;;;;;;10.13;7.30;;;;;;;;;;5082853;28;20036;-66
2022/06/22 08:52:21;;;;;;;16.30;7.70;;;;;;;;;;5074272;28;20039;-66
2022/06/22 08:55:15;;;;;;;10.73;6.93;;;;;;;;;;5079314;28;20036;-64
2022/06/22 08:58:13;;;;;;;12.48;6.85;;;;;;;;;;5087121;28;20044;-64
2022/06/22 09:00:58;;;;;;;11.70;7.28;;;;;;;;;;5091843;28;20048;-63
2022/06/22 09:03:50;;;;;;;12.13;6.80;;;;;;;;;;5086668;28;20046;-63
2022/06/22 09:06:59;;;;;;;12.20;6.78;;;;;;;;;;5086487;28;20161;-64
2022/06/22 09:09:44;;;;;;;12.98;6.97;;;;;;;;;;5075252;28;20017;-64
2022/06/22 09:12:33;;;;;;;35.90;18.42;;;;;;;;;;5091171;28;20459;-63
2022/06/22 09:15:27;;;;;;;12.00;7.78;;;;;;;;;;5091449;28;20432;-68
2022/06/22 09:18:22;;;;;;;13.10;7.75;;;;;;;;;;5090380;28;20039;-64
2022/06/22 09:21:14;;;;;;;14.13;7.40;;;;;;;;;;5088953;28;20045;-58
2022/06/22 09:24:19;;;;;;;13.65;7.82;;;;;;;;;;5073922;28;20031;-58
2022/06/22 09:27:10;;;;;;;12.02;7.78;;;;;;;;;;5090698;28;20049;-59
2022/06/22 09:30:11;;;;;;;16.35;8.85;;;;;;;;;;5090402;28;20025;-58
2022/06/22 09:33:06;;;;;;;10.80;7.15;;;;;;;;;;5090248;28;20031;-58
2022/06/22 09:36:02;;;;;;;14.70;7.20;;;;;;;;;;5090460;28;20028;-58
2022/06/22 09:39:03;;;;;;;10.02;7.35;;;;;;;;;;5090742;28;20119;-64
2022/06/22 09:42:01;;;;;;;11.82;7.25;;;;;;;;;;5092192;28;21537;-57
2022/06/22 09:44:49;;;;;;;11.95;7.30;;;;;;;;;;5090903;28;20489;-66
2022/06/22 09:47:47;;;;;;;13.95;7.28;;;;;;;;;;5092430;28;20024;-66
2022/06/22 09:50:35;;;;;;;11.68;7.07;;;;;;;;;;5090288;28;20441;-77
2022/06/22 09:53:40;;;;;;;9.30;6.65;;;;;;;;;;5074530;28;20024;-73
2022/06/22 09:56:49;;;;;;;10.40;7.15;;;;;;;;;;5091367;28;20048;-80
2022/06/22 09:59:44;;;;;;;15.20;7.55;;;;;;;;;;5092231;28;20032;-74
2022/06/22 10:02:38;;;;;;;10.27;7.10;;;;;;;;;;5088217;28;20034;-61
2022/06/22 10:05:40;;;;;;;11.43;7.45;;;;;;;;;;5078519;28;20020;-61
2022/06/22 10:08:31;;;;;;;13.10;7.97;;;;;;;;;;5083005;28;20020;-60
2022/06/22 10:11:17;;;;;;;10.65;7.53;;;;;;;;;;5085321;28;20028;-60
2022/06/22 10:14:03;;;;;;;11.10;7.78;;;;;;;;;;5088533;28;20032;-65
2022/06/22 10:17:07;;;;;;;15.60;7.78;;;;;;;;;;5088179;28;20113;-59
2022/06/22 10:19:58;;;;;;;12.02;8.18;;;;;;;;;;5072825;28;20024;-59
2022/06/22 10:23:09;;;;;;;11.00;7.53;;;;;;;;;;5072354;28;20036;-58
2022/06/22 10:26:13;;;;;;;10.82;7.18;;;;;;;;;;5078658;28;20385;-60
2022/06/22 10:29:08;;;;;;;9.18;6.70;;;;;;;;;;5089001;28;20036;-57
2022/06/22 10:31:56;;;;;;;8.02;6.65;;;;;;;;;;5075472;28;20031;-59
2022/06/22 10:34:53;;;;;;;12.07;7.57;;;;;;;;;;5088184;28;20032;-71
2022/06/22 10:37:50;;;;;;;11.43;7.88;;;;;;;;;;5087492;28;20042;-62
2022/06/22 10:47:41;;;;;;;15.40;7.70;;;;;;;;;;5074374;28;20036;-62
2022/06/22 10:50:27;;;;;;;14.13;7.25;;;;;;;;;;5085645;28;20106;-62
2022/06/22 10:53:18;;;;;;;9.13;6.85;;;;;;;;;;5088732;28;20028;-65
2022/06/22 10:56:23;;;;;;;10.55;6.30;;;;;;;;;;5093147;28;20119;-61
2022/06/22 10:59:27;;;;;;;9.00;7.03;;;;;;;;;;5075942;28;20489;-64
2022/06/22 11:02:36;;;;;;;8.52;6.28;;;;;;;;;;5084121;28;20043;-64
2022/06/22 11:05:22;;;;;;;11.43;6.78;;;;;;;;;;5070548;28;20099;-67
2022/06/22 11:08:30;;;;;;;9.70;6.68;;;;;;;;;;5061884;28;20058;-69
2022/06/22 11:11:22;;;;;;;10.23;6.57;;;;;;;;;;5090446;28;20439;-61
2022/06/22 11:14:19;;;;;;;8.73;6.00;;;;;;;;;;5090336;28;20032;-66
2022/06/22 11:17:08;;;;;;;10.23;6.22;;;;;;;;;;5088124;28;20027;-65
2022/06/22 11:19:56;;;;;;;11.10;7.03;;;;;;;;;;5087953;28;20040;-66
2022/06/22 11:22:46;;;;;;;8.20;5.63;;;;;;;;;;5086630;28;20046;-73
2022/06/22 11:32:23;;;;;;;10.27;7.00;;;;;;;;;;5087952;28;20168;-66
2022/06/22 11:35:08;;;;;;;9.35;7.15;;;;;;;;;;5087867;28;20064;-60
2022/06/22 11:38:06;;;;;;;11.20;6.95;;;;;;;;;;5084248;28;20031;-60
2022/06/22 11:40:55;;;;;;;9.40;6.07;;;;;;;;;;5087487;28;20028;-65
2022/06/22 11:43:44;;;;;;;7.75;6.15;;;;;;;;;;5085537;28;20207;-63
2022/06/22 11:46:35;;;;;;;13.65;7.13;;;;;;;;;;5076077;28;20043;-60
2022/06/22 11:49:27;;;;;;;9.15;6.20;;;;;;;;;;5089323;28;20109;-71
2022/06/22 11:52:19;;;;;;;9.98;6.55;;;;;;;;;;5090010;28;20040;-64
2022/06/22 11:55:24;;;;;;;9.95;7.30;;;;;;;;;;5085879;28;20035;-62
2022/06/22 11:58:15;;;;;;;9.25;7.20;;;;;;;;;;5072414;28;20027;-64
2022/06/22 12:01:20;;;;;;;10.93;7.45;;;;;;;;;;5086829;28;20271;-70
2022/06/22 12:04:25;;;;;;;10.55;7.82;;;;;;;;;;5089338;28;20386;-70
2022/06/22 12:07:17;;;;;;;10.15;6.93;;;;;;;;;;5076151;28;20115;-70
2022/06/22 12:10:22;;;;;;;10.52;7.40;;;;;;;;;;5076302;28;20110;-69
2022/06/22 12:13:18;;;;;;;11.38;7.72;;;;;;;;;;5074839;28;20028;-70
2022/06/22 12:16:27;;;;;;;11.88;7.20;;;;;;;;;;5090407;28;20554;-70
2022/06/22 12:19:48;;;;;;;11.75;7.55;;;;;;;;;;5087067;28;20060;-70
2022/06/22 12:22:41;;;;;;;9.45;6.90;;;;;;;;;;5008965;28;20033;-70
2022/06/22 12:25:55;;;;;;;13.70;6.47;;;;;;;;;;5093737;28;20019;-69
2022/06/22 12:28:59;;;;;;;11.50;6.93;;;;;;;;;;5076818;28;20054;-66
2022/06/22 12:31:48;;;;;;;9.43;5.55;;;;;;;;;;5091161;28;20064;-65
2022/06/22 12:34:40;;;;;;;12.60;5.68;;;;;;;;;;5091528;28;20130;-65
2022/06/22 12:37:28;;;;;;;11.80;5.65;;;;;;;;;;5072039;28;20070;-65
2022/06/22 12:40:20;;;;;;;9.43;5.13;;;;;;;;;;5087149;28;20028;-65
2022/06/22 12:43:12;;;;;;;12.52;5.35;;;;;;;;;;5084888;28;20055;-66
2022/06/22 12:46:16;;;;;;;19.08;5.25;;;;;;;;;;5088686;28;20053;-69
2022/06/22 12:49:20;;;;;;;11.98;4.93;;;;;;;;;;5065226;28;20089;-72
2022/06/22 12:52:18;;;;;;;14.02;4.95;;;;;;;;;;5074497;28;20024;-70
2022/06/22 12:55:07;;;;;;;16.50;5.47;;;;;;;;;;5089545;28;20073;-71
2022/06/22 12:57:58;;;;;;;12.13;5.35;;;;;;;;;;5084079;28;20040;-70
2022/06/22 13:00:45;;;;;;;14.85;5.05;;;;;;;;;;5092361;28;20106;-72
2022/06/22 13:03:37;;;;;;;8.38;4.93;;;;;;;;;;5086135;28;20453;-70
2022/06/22 13:06:24;;;;;;;11.40;5.75;;;;;;;;;;5091866;28;20436;-70
2022/06/22 13:09:09;;;;;;;9.00;4.75;;;;;;;;;;5088985;28;20028;-68
2022/06/22 13:11:57;;;;;;;15.07;5.40;;;;;;;;;;5091016;28;20063;-71
2022/06/22 13:14:49;;;;;;;12.48;4.90;;;;;;;;;;5088926;28;20127;-68
2022/06/22 13:17:43;;;;;;;15.57;5.88;;;;;;;;;;5087898;28;20453;-70
2022/06/22 13:20:29;;;;;;;14.07;5.90;;;;;;;;;;5072574;28;20036;-70
2022/06/22 13:23:26;;;;;;;12.07;5.55;;;;;;;;;;5088428;28;20478;-71
2022/06/22 13:26:30;;;;;;;18.92;5.40;;;;;;;;;;5091384;28;20107;-72
2022/06/22 13:29:16;;;;;;;12.93;5.57;;;;;;;;;;5092760;28;20123;-71
2022/06/22 13:32:04;;;;;;;13.13;6.35;;;;;;;;;;5090463;28;20430;-72
2022/06/22 13:34:52;;;;;;;14.70;5.43;;;;;;;;;;5091577;28;20169;-75
2022/06/22 13:37:46;;;;;;;15.82;5.68;;;;;;;;;;5092288;28;20016;-74
2022/06/22 13:40:44;;;;;;;15.30;5.15;;;;;;;;;;5076070;28;20042;-69
2022/06/22 13:43:41;;;;;;;13.13;5.55;;;;;;;;;;5083998;28;20370;-74
2022/06/22 13:46:34;;;;;;;15.80;5.50;;;;;;;;;;5088287;28;20180;-69
2022/06/22 13:49:40;;;;;;;15.13;5.55;;;;;;;;;;5090730;28;20051;-72
2022/06/22 13:52:41;;;;;;;11.73;5.28;;;;;;;;;;5089938;28;20027;-72
2022/06/22 13:55:36;;;;;;;14.98;5.28;;;;;;;;;;5091833;28;20116;-72
2022/06/22 13:58:29;;;;;;;17.00;5.72;;;;;;;;;;5087126;28;20636;-71
2022/06/22 14:01:19;;;;;;;16.15;5.35;;;;;;;;;;5091105;28;20047;-71
2022/06/22 14:04:12;;;;;;;14.60;4.68;;;;;;;;;;5088284;28;20028;-70
2022/06/22 14:07:00;;;;;;;17.80;5.80;;;;;;;;;;5092004;28;20020;-70
2022/06/22 14:10:05;;;;;;;13.60;5.53;;;;;;;;;;5056410;28;20035;-72
2022/06/22 14:12:52;;;;;;;13.65;5.60;;;;;;;;;;5092647;28;20020;-70
2022/06/22 14:15:46;;;;;;;16.30;5.68;;;;;;;;;;5090061;28;20061;-70
2022/06/22 14:18:34;;;;;;;15.57;5.38;;;;;;;;;;5091788;28;20032;-71
2022/06/22 14:21:24;;;;;;;16.70;5.50;;;;;;;;;;5077266;28;20471;-70
2022/06/22 14:24:21;;;;;;;14.85;5.28;;;;;;;;;;5090464;28;20032;-72
2022/06/22 14:27:22;;;;;;;16.38;5.28;;;;;;;;;;5089735;28;20039;-70
2022/06/22 14:30:15;;;;;;;13.55;5.53;;;;;;;;;;5073500;28;20025;-70
2022/06/22 14:33:12;;;;;;;12.95;4.50;;;;;;;;;;5084939;28;20532;-71
2022/06/22 14:36:04;;;;;;;15.77;5.35;;;;;;;;;;5083984;28;20070;-65
2022/06/22 14:38:50;;;;;;;15.32;4.93;;;;;;;;;;5090100;28;20534;-74
2022/06/22 14:41:41;;;;;;;16.88;5.18;;;;;;;;;;5076899;28;20020;-75
2022/06/22 14:44:27;;;;;;;15.23;5.15;;;;;;;;;;5083343;28;20028;-74
2022/06/22 14:47:19;;;;;;;15.40;4.85;;;;;;;;;;5086818;28;20023;-75
2022/06/22 14:50:07;;;;;;;15.20;4.85;;;;;;;;;;5090604;28;20100;-77
2022/06/22 14:53:05;;;;;;;16.70;5.73;;;;;;;;;;5086329;28;20047;-65
2022/06/22 14:55:59;;;;;;;19.23;6.28;;;;;;;;;;5087628;28;20401;-69
2022/06/22 14:58:44;;;;;;;23.20;6.18;;;;;;;;;;5086488;28;20114;-69
2022/06/22 15:01:37;;;;;;;11.95;5.05;;;;;;;;;;5092331;28;20020;-69
2022/06/22 15:04:35;;;;;;;18.98;5.47;;;;;;;;;;5088792;28;20036;-68
2022/06/22 15:07:35;;;;;;;14.45;4.68;;;;;;;;;;5072834;28;20093;-69
2022/06/22 15:10:26;;;;;;;17.10;4.53;;;;;;;;;;5090829;28;20207;-65
2022/06/22 15:13:29;;;;;;;21.48;6.07;;;;;;;;;;5089402;28;20032;-63
2022/06/22 15:16:18;;;;;;;20.48;5.45;;;;;;;;;;5086166;28;20031;-71
2022/06/22 15:19:06;;;;;;;16.85;5.40;;;;;;;;;;5083080;28;20066;-71
2022/06/22 15:21:56;;;;;;;15.10;5.68;;;;;;;;;;5088678;28;20047;-71
2022/06/22 15:24:45;;;;;;;18.70;6.43;;;;;;;;;;5075477;28;20383;-71
2022/06/22 15:27:34;;;;;;;17.85;5.57;;;;;;;;;;5073890;28;20023;-68
2022/06/22 15:30:21;;;;;;;17.40;5.13;;;;;;;;;;5088439;28;20020;-68
2022/06/22 15:33:07;;;;;;;17.25;5.75;;;;;;;;;;5072857;28;20130;-65
2022/06/22 15:36:08;;;;;;;15.15;5.38;;;;;;;;;;5086893;28;20035;-64
2022/06/22 15:38:58;;;;;;;15.15;5.38;;;;;;;;;;5089967;28;20042;-66
2022/06/22 15:41:58;;;;;;;15.50;4.97;;;;;;;;;;5091124;28;20024;-63
2022/06/22 15:44:46;;;;;;;15.82;5.20;;;;;;;;;;5093996;28;20031;-63
2022/06/22 15:47:34;;;;;;;15.32;4.88;;;;;;;;;;5089934;28;20024;-68
2022/06/22 15:50:20;;;;;;;16.67;4.93;;;;;;;;;;5092770;28;20036;-69
2022/06/22 15:53:06;;;;;;;16.83;4.72;;;;;;;;;;5090736;28;20355;-69
2022/06/22 15:56:10;;;;;;;23.90;4.93;;;;;;;;;;5092501;28;20543;-68
2022/06/22 15:59:04;;;;;;;16.63;6.22;;;;;;;;;;5091914;28;20466;-69
2022/06/22 16:02:01;;;;;;;15.82;5.25;;;;;;;;;;5091784;28;20032;-68
2022/06/22 16:04:51;;;;;;;17.08;5.13;;;;;;;;;;5076995;28;20020;-68
2022/06/22 16:07:43;;;;;;;16.27;4.70;;;;;;;;;;5084809;28;20383;-69
2022/06/22 16:10:39;;;;;;;20.48;5.25;;;;;;;;;;5090766;28;20020;-66
2022/06/22 16:13:28;;;;;;;12.57;5.10;;;;;;;;;;5087455;28;20028;-65
2022/06/22 16:16:25;;;;;;;19.05;8.38;;;;;;;;;;5087131;28;20065;-65
2022/06/22 16:19:16;;;;;;;16.60;7.20;;;;;;;;;;5090056;28;20032;-66
2022/06/22 16:22:08;;;;;;;15.45;4.70;;;;;;;;;;5091300;28;20171;-65
2022/06/22 16:25:13;;;;;;;14.20;5.18;;;;;;;;;;5092037;28;20032;-66
2022/06/22 16:28:05;;;;;;;13.02;4.30;;;;;;;;;;5091916;28;20378;-67
2022/06/22 16:31:10;;;;;;;14.65;5.15;;;;;;;;;;5089931;28;20085;-66
2022/06/22 16:34:05;;;;;;;14.90;4.28;;;;;;;;;;5089895;28;20370;-67
2022/06/22 16:37:09;;;;;;;16.60;4.93;;;;;;;;;;5090681;28;20047;-68
2022/06/22 16:39:54;;;;;;;10.85;4.70;;;;;;;;;;5088306;28;20509;-65
2022/06/22 16:42:47;;;;;;;14.60;4.93;;;;;;;;;;5090361;28;20060;-68
2022/06/22 16:45:41;;;;;;;15.85;4.88;;;;;;;;;;5090968;28;20059;-66
2022/06/22 16:48:36;;;;;;;15.18;6.20;;;;;;;;;;5087480;28;20113;-64
2022/06/22 16:51:36;;;;;;;11.95;4.53;;;;;;;;;;5085265;28;20089;-67
2022/06/22 16:54:33;;;;;;;11.43;4.82;;;;;;;;;;5080087;28;20035;-67
2022/06/22 16:57:21;;;;;;;18.10;4.40;;;;;;;;;;5076579;28;20028;-68
2022/06/22 17:00:07;;;;;;;11.93;4.88;;;;;;;;;;5091915;28;20486;-68
2022/06/22 17:02:55;;;;;;;15.55;5.70;;;;;;;;;;5081632;28;20463;-68
2022/06/22 17:05:47;;;;;;;19.45;5.72;;;;;;;;;;5092519;28;20475;-66
2022/06/22 17:08:39;;;;;;;15.23;5.22;;;;;;;;;;5080100;28;20120;-65
2022/06/22 17:11:26;;;;;;;18.90;6.32;;;;;;;;;;5090060;28;20102;-66
2022/06/22 17:14:25;;;;;;;23.20;6.95;;;;;;;;;;5086609;28;20024;-65
2022/06/22 17:17:17;;;;;;;17.40;6.22;;;;;;;;;;5085474;28;20217;-68
2022/06/22 17:20:13;;;;;;;16.65;6.10;;;;;;;;;;5091063;28;20063;-68
2022/06/22 17:23:06;;;;;;;19.55;6.90;;;;;;;;;;5091457;28;20063;-64
2022/06/22 17:26:09;;;;;;;20.02;6.10;;;;;;;;;;5089668;28;20040;-63